sensor_id;sensor_type;location;lat;lon;timestamp;temperature;humidity
40932;DHT22;36257;46.052;12.540;2022-07-29T00:02:08;24.60;73.80
40932;DHT22;36257;46.052;12.540;2022-07-29T00:04:35;24.60;74.00
40932;DHT22;36257;46.052;12.540;2022-07-29T00:07:01;24.60;74.40
40932;DHT22;36257;46.052;12.540;2022-07-29T00:09:27;24.50;74.70
40932;DHT22;36257;46.052;12.540;2022-07-29T00:11:53;24.50;74.60
40932;DHT22;36257;46.052;12.540;2022-07-29T00:14:20;24.50;74.70
40932;DHT22;36257;46.052;12.540;2022-07-29T00:16:45;24.50;74.70
40932;DHT22;36257;46.052;12.540;2022-07-29T00:19:11;24.50;74.40
40932;DHT22;36257;46.052;12.540;2022-07-29T00:21:37;24.50;74.20
40932;DHT22;36257;46.052;12.540;2022-07-29T00:24:03;24.50;74.50
40932;DHT22;36257;46.052;12.540;2022-07-29T00:26:29;24.50;74.50
40932;DHT22;36257;46.052;12.540;2022-07-29T00:29:00;24.50;74.70
40932;DHT22;36257;46.052;12.540;2022-07-29T00:31:26;24.50;74.70
40932;DHT22;36257;46.052;12.540;2022-07-29T00:33:52;24.60;74.50
40932;DHT22;36257;46.052;12.540;2022-07-29T00:36:18;24.60;74.60
40932;DHT22;36257;46.052;12.540;2022-07-29T00:38:49;24.60;74.30
40932;DHT22;36257;46.052;12.540;2022-07-29T00:41:15;24.60;74.30
40932;DHT22;36257;46.052;12.540;2022-07-29T00:43:41;24.60;74.50
40932;DHT22;36257;46.052;12.540;2022-07-29T00:46:07;24.60;74.30
40932;DHT22;36257;46.052;12.540;2022-07-29T00:48:33;24.60;74.20
40932;DHT22;36257;46.052;12.540;2022-07-29T00:51:00;24.60;74.20
40932;DHT22;36257;46.052;12.540;2022-07-29T00:53:27;24.60;74.40
40932;DHT22;36257;46.052;12.540;2022-07-29T00:55:56;24.70;74.40
40932;DHT22;36257;46.052;12.540;2022-07-29T00:58:23;24.70;74.10
40932;DHT22;36257;46.052;12.540;2022-07-29T01:00:49;24.80;73.80
40932;DHT22;36257;46.052;12.540;2022-07-29T01:03:15;24.80;73.60
40932;DHT22;36257;46.052;12.540;2022-07-29T01:05:41;24.80;73.30
40932;DHT22;36257;46.052;12.540;2022-07-29T01:08:08;24.90;73.60
40932;DHT22;36257;46.052;12.540;2022-07-29T01:10:36;24.90;73.10
40932;DHT22;36257;46.052;12.540;2022-07-29T01:13:02;24.90;73.30
40932;DHT22;36257;46.052;12.540;2022-07-29T01:15:29;24.90;74.20
40932;DHT22;36257;46.052;12.540;2022-07-29T01:20:51;25.00;73.00
40932;DHT22;36257;46.052;12.540;2022-07-29T01:23:51;25.10;72.60
40932;DHT22;36257;46.052;12.540;2022-07-29T01:34:07;25.10;72.30
40932;DHT22;36257;46.052;12.540;2022-07-29T01:36:39;25.10;72.20
40932;DHT22;36257;46.052;12.540;2022-07-29T01:39:10;25.00;73.10
40932;DHT22;36257;46.052;12.540;2022-07-29T01:41:39;24.90;73.60
40932;DHT22;36257;46.052;12.540;2022-07-29T01:44:15;24.80;74.40
40932;DHT22;36257;46.052;12.540;2022-07-29T01:46:48;24.70;74.30
40932;DHT22;36257;46.052;12.540;2022-07-29T01:49:17;24.70;74.50
40932;DHT22;36257;46.052;12.540;2022-07-29T01:52:15;24.90;72.10
40932;DHT22;36257;46.052;12.540;2022-07-29T01:54:45;25.10;72.20
40932;DHT22;36257;46.052;12.540;2022-07-29T01:57:15;25.20;70.80
40932;DHT22;36257;46.052;12.540;2022-07-29T01:59:46;25.30;71.20
40932;DHT22;36257;46.052;12.540;2022-07-29T02:02:15;25.30;72.00
40932;DHT22;36257;46.052;12.540;2022-07-29T02:04:43;25.20;72.60
40932;DHT22;36257;46.052;12.540;2022-07-29T02:07:15;25.20;72.60
40932;DHT22;36257;46.052;12.540;2022-07-29T02:09:41;25.20;73.00
40932;DHT22;36257;46.052;12.540;2022-07-29T02:12:08;25.20;73.50
40932;DHT22;36257;46.052;12.540;2022-07-29T02:14:38;25.10;73.40
40932;DHT22;36257;46.052;12.540;2022-07-29T02:17:05;25.10;73.70
40932;DHT22;36257;46.052;12.540;2022-07-29T02:19:32;25.10;74.50
40932;DHT22;36257;46.052;12.540;2022-07-29T02:22:00;25.00;75.00
40932;DHT22;36257;46.052;12.540;2022-07-29T02:24:26;25.00;75.10
40932;DHT22;36257;46.052;12.540;2022-07-29T02:26:54;24.90;76.10
40932;DHT22;36257;46.052;12.540;2022-07-29T02:29:23;24.90;77.80
40932;DHT22;36257;46.052;12.540;2022-07-29T02:31:51;24.80;79.10
40932;DHT22;36257;46.052;12.540;2022-07-29T02:34:19;24.70;77.40
40932;DHT22;36257;46.052;12.540;2022-07-29T02:36:46;24.60;77.50
40932;DHT22;36257;46.052;12.540;2022-07-29T02:39:13;24.50;77.60
40932;DHT22;36257;46.052;12.540;2022-07-29T02:41:51;24.50;78.20
40932;DHT22;36257;46.052;12.540;2022-07-29T02:44:18;24.40;78.70
40932;DHT22;36257;46.052;12.540;2022-07-29T02:47:16;24.30;78.90
40932;DHT22;36257;46.052;12.540;2022-07-29T02:52:20;24.20;77.00
40932;DHT22;36257;46.052;12.540;2022-07-29T02:55:00;24.20;77.30
40932;DHT22;36257;46.052;12.540;2022-07-29T02:57:36;24.20;76.90
40932;DHT22;36257;46.052;12.540;2022-07-29T03:00:07;24.20;76.70
40932;DHT22;36257;46.052;12.540;2022-07-29T03:02:36;24.20;76.30
40932;DHT22;36257;46.052;12.540;2022-07-29T03:05:04;24.20;75.90
40932;DHT22;36257;46.052;12.540;2022-07-29T03:07:33;24.20;75.70
40932;DHT22;36257;46.052;12.540;2022-07-29T03:09:59;24.20;75.40
40932;DHT22;36257;46.052;12.540;2022-07-29T03:12:25;24.20;75.40
40932;DHT22;36257;46.052;12.540;2022-07-29T03:14:53;24.20;76.00
40932;DHT22;36257;46.052;12.540;2022-07-29T03:17:19;24.20;75.80
40932;DHT22;36257;46.052;12.540;2022-07-29T03:19:45;24.20;74.80
40932;DHT22;36257;46.052;12.540;2022-07-29T03:22:11;24.20;74.70
40932;DHT22;36257;46.052;12.540;2022-07-29T03:24:37;24.20;74.70
40932;DHT22;36257;46.052;12.540;2022-07-29T03:27:04;24.20;74.80
40932;DHT22;36257;46.052;12.540;2022-07-29T03:29:30;24.20;74.70
40932;DHT22;36257;46.052;12.540;2022-07-29T03:31:56;24.20;74.60
40932;DHT22;36257;46.052;12.540;2022-07-29T03:34:21;24.20;74.60
40932;DHT22;36257;46.052;12.540;2022-07-29T03:36:48;24.20;74.60
40932;DHT22;36257;46.052;12.540;2022-07-29T03:39:19;24.30;74.20
40932;DHT22;36257;46.052;12.540;2022-07-29T03:41:48;24.30;74.80
40932;DHT22;36257;46.052;12.540;2022-07-29T03:44:16;24.30;74.60
40932;DHT22;36257;46.052;12.540;2022-07-29T03:46:44;24.30;74.90
40932;DHT22;36257;46.052;12.540;2022-07-29T03:49:11;24.20;74.80
40932;DHT22;36257;46.052;12.540;2022-07-29T03:51:39;24.20;74.60
40932;DHT22;36257;46.052;12.540;2022-07-29T03:54:05;24.20;74.60
40932;DHT22;36257;46.052;12.540;2022-07-29T03:56:35;24.20;74.60
40932;DHT22;36257;46.052;12.540;2022-07-29T03:59:02;24.20;74.60
40932;DHT22;36257;46.052;12.540;2022-07-29T04:01:29;24.20;74.80
40932;DHT22;36257;46.052;12.540;2022-07-29T04:03:56;24.10;74.80
40932;DHT22;36257;46.052;12.540;2022-07-29T04:06:22;24.10;74.60
40932;DHT22;36257;46.052;12.540;2022-07-29T04:08:47;24.10;74.60
40932;DHT22;36257;46.052;12.540;2022-07-29T04:11:13;24.10;74.30
40932;DHT22;36257;46.052;12.540;2022-07-29T04:13:39;24.20;74.60
40932;DHT22;36257;46.052;12.540;2022-07-29T04:16:04;24.10;74.40
40932;DHT22;36257;46.052;12.540;2022-07-29T04:18:30;24.10;74.60
40932;DHT22;36257;46.052;12.540;2022-07-29T04:20:56;24.10;74.40
40932;DHT22;36257;46.052;12.540;2022-07-29T04:23:24;24.10;74.40
40932;DHT22;36257;46.052;12.540;2022-07-29T04:25:50;24.10;74.40
40932;DHT22;36257;46.052;12.540;2022-07-29T04:28:15;24.10;74.60
40932;DHT22;36257;46.052;12.540;2022-07-29T04:30:41;24.10;74.60
40932;DHT22;36257;46.052;12.540;2022-07-29T04:33:07;24.10;74.40
40932;DHT22;36257;46.052;12.540;2022-07-29T04:35:37;24.10;74.30
40932;DHT22;36257;46.052;12.540;2022-07-29T04:38:04;24.20;73.80
40932;DHT22;36257;46.052;12.540;2022-07-29T04:40:30;24.20;73.80
40932;DHT22;36257;46.052;12.540;2022-07-29T04:42:55;24.20;74.10
40932;DHT22;36257;46.052;12.540;2022-07-29T04:45:21;24.30;73.80
40932;DHT22;36257;46.052;12.540;2022-07-29T04:47:47;24.30;73.80
40932;DHT22;36257;46.052;12.540;2022-07-29T04:50:13;24.30;73.50
40932;DHT22;36257;46.052;12.540;2022-07-29T04:52:38;24.40;73.20
40932;DHT22;36257;46.052;12.540;2022-07-29T04:55:05;24.40;73.50
40932;DHT22;36257;46.052;12.540;2022-07-29T04:57:31;24.50;73.30
40932;DHT22;36257;46.052;12.540;2022-07-29T04:59:56;24.50;72.80
40932;DHT22;36257;46.052;12.540;2022-07-29T05:02:22;24.60;72.60
40932;DHT22;36257;46.052;12.540;2022-07-29T05:04:48;24.70;72.50
40932;DHT22;36257;46.052;12.540;2022-07-29T05:07:14;24.80;72.70
40932;DHT22;36257;46.052;12.540;2022-07-29T05:09:40;24.90;72.50
40932;DHT22;36257;46.052;12.540;2022-07-29T05:12:06;24.90;72.20
40932;DHT22;36257;46.052;12.540;2022-07-29T05:14:32;25.10;71.70
40932;DHT22;36257;46.052;12.540;2022-07-29T05:16:58;25.20;71.90
40932;DHT22;36257;46.052;12.540;2022-07-29T05:19:24;25.30;72.30
40932;DHT22;36257;46.052;12.540;2022-07-29T05:21:49;25.40;71.50
40932;DHT22;36257;46.052;12.540;2022-07-29T05:24:15;25.40;71.20
40932;DHT22;36257;46.052;12.540;2022-07-29T05:26:41;25.50;70.70
40932;DHT22;36257;46.052;12.540;2022-07-29T05:29:07;25.60;70.80
40932;DHT22;36257;46.052;12.540;2022-07-29T05:31:33;25.80;71.00
40932;DHT22;36257;46.052;12.540;2022-07-29T05:33:59;25.90;70.60
40932;DHT22;36257;46.052;12.540;2022-07-29T05:36:25;26.00;70.70
40932;DHT22;36257;46.052;12.540;2022-07-29T05:38:50;26.10;70.20
40932;DHT22;36257;46.052;12.540;2022-07-29T05:41:20;26.30;70.40
40932;DHT22;36257;46.052;12.540;2022-07-29T05:43:46;26.40;69.60
40932;DHT22;36257;46.052;12.540;2022-07-29T05:46:12;26.60;68.20
40932;DHT22;36257;46.052;12.540;2022-07-29T05:48:39;26.80;66.90
40932;DHT22;36257;46.052;12.540;2022-07-29T05:51:05;26.90;67.20
40932;DHT22;36257;46.052;12.540;2022-07-29T05:53:30;27.00;65.70
40932;DHT22;36257;46.052;12.540;2022-07-29T05:55:56;27.10;65.60
40932;DHT22;36257;46.052;12.540;2022-07-29T05:58:22;27.30;65.70
40932;DHT22;36257;46.052;12.540;2022-07-29T06:00:47;27.50;65.80
40932;DHT22;36257;46.052;12.540;2022-07-29T06:03:13;27.70;65.80
40932;DHT22;36257;46.052;12.540;2022-07-29T06:05:39;27.80;65.40
40932;DHT22;36257;46.052;12.540;2022-07-29T06:08:05;28.00;64.50
40932;DHT22;36257;46.052;12.540;2022-07-29T06:10:37;28.10;67.00
40932;DHT22;36257;46.052;12.540;2022-07-29T06:13:03;28.30;67.50
40932;DHT22;36257;46.052;12.540;2022-07-29T06:15:28;28.30;68.10
40932;DHT22;36257;46.052;12.540;2022-07-29T06:17:54;28.40;68.30
40932;DHT22;36257;46.052;12.540;2022-07-29T06:20:20;28.40;67.40
40932;DHT22;36257;46.052;12.540;2022-07-29T06:22:45;28.50;67.30
40932;DHT22;36257;46.052;12.540;2022-07-29T06:25:11;28.40;68.10
40932;DHT22;36257;46.052;12.540;2022-07-29T06:27:37;28.30;67.70
40932;DHT22;36257;46.052;12.540;2022-07-29T06:30:03;28.30;67.90
40932;DHT22;36257;46.052;12.540;2022-07-29T06:32:32;28.30;68.10
40932;DHT22;36257;46.052;12.540;2022-07-29T06:34:57;28.40;67.70
40932;DHT22;36257;46.052;12.540;2022-07-29T06:37:23;28.40;67.00
40932;DHT22;36257;46.052;12.540;2022-07-29T06:39:48;28.60;68.90
40932;DHT22;36257;46.052;12.540;2022-07-29T06:42:34;28.80;68.00
40932;DHT22;36257;46.052;12.540;2022-07-29T06:45:00;29.00;66.20
40932;DHT22;36257;46.052;12.540;2022-07-29T06:47:25;29.00;65.40
40932;DHT22;36257;46.052;12.540;2022-07-29T06:49:51;29.10;63.10
40932;DHT22;36257;46.052;12.540;2022-07-29T06:52:17;29.10;60.40
40932;DHT22;36257;46.052;12.540;2022-07-29T06:54:42;29.20;63.90
40932;DHT22;36257;46.052;12.540;2022-07-29T06:57:13;29.30;64.30
40932;DHT22;36257;46.052;12.540;2022-07-29T06:59:39;29.50;63.90
40932;DHT22;36257;46.052;12.540;2022-07-29T07:02:04;29.70;64.20
40932;DHT22;36257;46.052;12.540;2022-07-29T07:04:30;29.80;63.80
40932;DHT22;36257;46.052;12.540;2022-07-29T07:06:56;29.90;63.20
40932;DHT22;36257;46.052;12.540;2022-07-29T07:09:21;30.10;60.80
40932;DHT22;36257;46.052;12.540;2022-07-29T07:11:47;30.30;61.10
40932;DHT22;36257;46.052;12.540;2022-07-29T07:14:12;30.40;61.60
40932;DHT22;36257;46.052;12.540;2022-07-29T07:16:38;30.60;59.80
40932;DHT22;36257;46.052;12.540;2022-07-29T07:19:04;30.50;59.60
40932;DHT22;36257;46.052;12.540;2022-07-29T07:21:29;30.50;59.60
40932;DHT22;36257;46.052;12.540;2022-07-29T07:23:55;30.30;59.50
40932;DHT22;36257;46.052;12.540;2022-07-29T07:26:21;30.20;60.50
40932;DHT22;36257;46.052;12.540;2022-07-29T07:28:46;30.20;62.10
40932;DHT22;36257;46.052;12.540;2022-07-29T07:31:12;30.40;60.80
40932;DHT22;36257;46.052;12.540;2022-07-29T07:33:38;30.70;61.30
40932;DHT22;36257;46.052;12.540;2022-07-29T07:36:03;31.00;59.00
40932;DHT22;36257;46.052;12.540;2022-07-29T07:38:29;31.30;58.60
40932;DHT22;36257;46.052;12.540;2022-07-29T07:40:55;31.50;58.50
40932;DHT22;36257;46.052;12.540;2022-07-29T07:43:20;31.70;58.80
40932;DHT22;36257;46.052;12.540;2022-07-29T07:45:47;32.00;59.10
40932;DHT22;36257;46.052;12.540;2022-07-29T07:48:12;32.20;58.40
40932;DHT22;36257;46.052;12.540;2022-07-29T07:50:38;32.40;55.60
40932;DHT22;36257;46.052;12.540;2022-07-29T07:53:04;32.50;55.20
40932;DHT22;36257;46.052;12.540;2022-07-29T07:55:29;32.30;57.60
40932;DHT22;36257;46.052;12.540;2022-07-29T07:57:55;32.20;57.60
40932;DHT22;36257;46.052;12.540;2022-07-29T08:00:21;32.30;58.60
40932;DHT22;36257;46.052;12.540;2022-07-29T08:02:47;32.40;57.40
40932;DHT22;36257;46.052;12.540;2022-07-29T08:05:13;32.30;56.40
40932;DHT22;36257;46.052;12.540;2022-07-29T08:07:43;32.40;59.20
40932;DHT22;36257;46.052;12.540;2022-07-29T08:10:09;32.50;57.70
40932;DHT22;36257;46.052;12.540;2022-07-29T08:12:35;32.60;56.00
40932;DHT22;36257;46.052;12.540;2022-07-29T08:15:01;32.60;57.40
40932;DHT22;36257;46.052;12.540;2022-07-29T08:17:26;32.60;56.70
40932;DHT22;36257;46.052;12.540;2022-07-29T08:19:52;32.70;56.60
40932;DHT22;36257;46.052;12.540;2022-07-29T08:22:18;32.90;55.80
40932;DHT22;36257;46.052;12.540;2022-07-29T08:24:43;33.00;54.00
40932;DHT22;36257;46.052;12.540;2022-07-29T08:27:13;33.00;54.00
40932;DHT22;36257;46.052;12.540;2022-07-29T08:29:39;32.80;54.20
40932;DHT22;36257;46.052;12.540;2022-07-29T08:32:05;32.90;54.90
40932;DHT22;36257;46.052;12.540;2022-07-29T08:34:31;32.90;56.80
40932;DHT22;36257;46.052;12.540;2022-07-29T08:36:57;33.00;55.40
40932;DHT22;36257;46.052;12.540;2022-07-29T08:39:24;33.10;54.70
40932;DHT22;36257;46.052;12.540;2022-07-29T08:41:50;32.80;55.80
40932;DHT22;36257;46.052;12.540;2022-07-29T08:44:19;33.00;56.70
40932;DHT22;36257;46.052;12.540;2022-07-29T08:46:47;33.20;56.10
40932;DHT22;36257;46.052;12.540;2022-07-29T08:49:13;33.50;55.60
40932;DHT22;36257;46.052;12.540;2022-07-29T08:51:39;33.60;54.90
40932;DHT22;36257;46.052;12.540;2022-07-29T08:54:05;33.70;55.10
40932;DHT22;36257;46.052;12.540;2022-07-29T08:56:32;33.90;54.30
40932;DHT22;36257;46.052;12.540;2022-07-29T08:58:59;33.90;53.40
40932;DHT22;36257;46.052;12.540;2022-07-29T09:01:27;33.90;55.20
40932;DHT22;36257;46.052;12.540;2022-07-29T09:03:57;33.90;55.10
40932;DHT22;36257;46.052;12.540;2022-07-29T09:06:24;33.90;54.30
40932;DHT22;36257;46.052;12.540;2022-07-29T09:08:53;33.80;54.40
40932;DHT22;36257;46.052;12.540;2022-07-29T09:11:20;33.70;55.30
40932;DHT22;36257;46.052;12.540;2022-07-29T09:13:45;33.70;54.80
40932;DHT22;36257;46.052;12.540;2022-07-29T09:16:11;33.90;54.40
40932;DHT22;36257;46.052;12.540;2022-07-29T09:18:39;33.90;52.80
40932;DHT22;36257;46.052;12.540;2022-07-29T09:21:07;34.00;55.70
40932;DHT22;36257;46.052;12.540;2022-07-29T09:24:09;34.10;53.80
40932;DHT22;36257;46.052;12.540;2022-07-29T09:26:38;34.00;53.70
40932;DHT22;36257;46.052;12.540;2022-07-29T09:29:15;34.10;55.40
40932;DHT22;36257;46.052;12.540;2022-07-29T09:31:43;34.30;54.10
40932;DHT22;36257;46.052;12.540;2022-07-29T09:34:10;34.40;53.90
40932;DHT22;36257;46.052;12.540;2022-07-29T09:36:39;34.60;51.90
40932;DHT22;36257;46.052;12.540;2022-07-29T09:39:05;34.60;53.20
40932;DHT22;36257;46.052;12.540;2022-07-29T09:41:51;34.60;52.40
40932;DHT22;36257;46.052;12.540;2022-07-29T09:44:21;34.70;53.70
40932;DHT22;36257;46.052;12.540;2022-07-29T09:47:03;34.70;52.80
40932;DHT22;36257;46.052;12.540;2022-07-29T09:49:52;34.70;53.70
40932;DHT22;36257;46.052;12.540;2022-07-29T09:52:19;34.80;53.00
40932;DHT22;36257;46.052;12.540;2022-07-29T09:54:45;34.90;52.70
40932;DHT22;36257;46.052;12.540;2022-07-29T10:00:00;35.00;53.30
40932;DHT22;36257;46.052;12.540;2022-07-29T10:02:35;35.20;50.40
40932;DHT22;36257;46.052;12.540;2022-07-29T10:05:04;35.20;53.20
40932;DHT22;36257;46.052;12.540;2022-07-29T10:07:51;35.50;51.00
40932;DHT22;36257;46.052;12.540;2022-07-29T10:10:26;35.60;51.20
40932;DHT22;36257;46.052;12.540;2022-07-29T10:15:22;35.00;51.70
40932;DHT22;36257;46.052;12.540;2022-07-29T10:17:47;34.40;52.60
40932;DHT22;36257;46.052;12.540;2022-07-29T10:20:14;34.30;54.10
40932;DHT22;36257;46.052;12.540;2022-07-29T10:22:40;34.60;53.20
40932;DHT22;36257;46.052;12.540;2022-07-29T10:25:07;34.80;52.70
40932;DHT22;36257;46.052;12.540;2022-07-29T10:27:34;35.30;54.30
40932;DHT22;36257;46.052;12.540;2022-07-29T10:29:59;35.60;50.40
40932;DHT22;36257;46.052;12.540;2022-07-29T10:35:44;35.50;50.00
40932;DHT22;36257;46.052;12.540;2022-07-29T10:43:55;35.70;52.90
40932;DHT22;36257;46.052;12.540;2022-07-29T10:46:22;36.10;52.90
40932;DHT22;36257;46.052;12.540;2022-07-29T10:52:00;36.60;50.10
40932;DHT22;36257;46.052;12.540;2022-07-29T10:57:30;36.70;48.10
40932;DHT22;36257;46.052;12.540;2022-07-29T11:05:03;36.90;50.50
40932;DHT22;36257;46.052;12.540;2022-07-29T11:07:31;37.00;48.00
40932;DHT22;36257;46.052;12.540;2022-07-29T11:15:07;36.80;49.00
40932;DHT22;36257;46.052;12.540;2022-07-29T11:18:06;36.60;47.70
40932;DHT22;36257;46.052;12.540;2022-07-29T11:20:36;36.50;48.40
40932;DHT22;36257;46.052;12.540;2022-07-29T11:23:20;36.70;50.80
40932;DHT22;36257;46.052;12.540;2022-07-29T11:28:34;37.00;48.90
40932;DHT22;36257;46.052;12.540;2022-07-29T11:31:02;37.00;48.00
40932;DHT22;36257;46.052;12.540;2022-07-29T11:33:30;37.00;49.20
40932;DHT22;36257;46.052;12.540;2022-07-29T11:36:12;36.90;48.30
40932;DHT22;36257;46.052;12.540;2022-07-29T11:38:39;36.90;49.90
40932;DHT22;36257;46.052;12.540;2022-07-29T11:41:23;37.10;48.50
40932;DHT22;36257;46.052;12.540;2022-07-29T11:43:52;37.00;47.30
40932;DHT22;36257;46.052;12.540;2022-07-29T11:46:43;36.90;48.70
40932;DHT22;36257;46.052;12.540;2022-07-29T11:49:11;37.10;48.80
40932;DHT22;36257;46.052;12.540;2022-07-29T11:51:37;37.30;50.00
40932;DHT22;36257;46.052;12.540;2022-07-29T11:54:04;37.40;47.90
40932;DHT22;36257;46.052;12.540;2022-07-29T11:56:34;37.40;47.70
40932;DHT22;36257;46.052;12.540;2022-07-29T11:59:05;37.10;47.90
40932;DHT22;36257;46.052;12.540;2022-07-29T12:01:31;37.30;48.50
40932;DHT22;36257;46.052;12.540;2022-07-29T12:04:07;37.30;47.70
40932;DHT22;36257;46.052;12.540;2022-07-29T12:06:35;37.30;47.50
40932;DHT22;36257;46.052;12.540;2022-07-29T12:09:07;37.30;49.50
40932;DHT22;36257;46.052;12.540;2022-07-29T12:11:33;37.40;49.60
40932;DHT22;36257;46.052;12.540;2022-07-29T12:13:58;37.60;47.30
40932;DHT22;36257;46.052;12.540;2022-07-29T12:16:37;37.60;48.50
40932;DHT22;36257;46.052;12.540;2022-07-29T12:19:03;37.60;49.00
40932;DHT22;36257;46.052;12.540;2022-07-29T12:21:44;37.70;48.10
40932;DHT22;36257;46.052;12.540;2022-07-29T12:24:10;37.70;47.40
40932;DHT22;36257;46.052;12.540;2022-07-29T12:26:36;37.70;49.60
40932;DHT22;36257;46.052;12.540;2022-07-29T12:29:02;37.80;47.90
40932;DHT22;36257;46.052;12.540;2022-07-29T12:31:28;37.70;47.10
40932;DHT22;36257;46.052;12.540;2022-07-29T12:33:54;37.50;49.00
40932;DHT22;36257;46.052;12.540;2022-07-29T12:36:19;37.40;47.40
40932;DHT22;36257;46.052;12.540;2022-07-29T12:38:45;37.40;47.10
40932;DHT22;36257;46.052;12.540;2022-07-29T12:41:11;37.20;48.60
40932;DHT22;36257;46.052;12.540;2022-07-29T12:43:37;37.30;48.60
40932;DHT22;36257;46.052;12.540;2022-07-29T12:46:14;37.20;47.50
40932;DHT22;36257;46.052;12.540;2022-07-29T12:48:41;37.00;49.20
40932;DHT22;36257;46.052;12.540;2022-07-29T12:51:08;36.90;48.50
40932;DHT22;36257;46.052;12.540;2022-07-29T12:53:35;37.10;49.50
40932;DHT22;36257;46.052;12.540;2022-07-29T12:56:01;37.20;48.50
40932;DHT22;36257;46.052;12.540;2022-07-29T12:58:37;37.30;47.80
40932;DHT22;36257;46.052;12.540;2022-07-29T13:01:13;37.30;47.30
40932;DHT22;36257;46.052;12.540;2022-07-29T13:03:45;37.20;49.50
40932;DHT22;36257;46.052;12.540;2022-07-29T13:06:38;37.30;47.40
40932;DHT22;36257;46.052;12.540;2022-07-29T13:11:46;37.40;46.80
40932;DHT22;36257;46.052;12.540;2022-07-29T13:14:14;37.20;46.70
40932;DHT22;36257;46.052;12.540;2022-07-29T13:17:21;37.00;47.80
40932;DHT22;36257;46.052;12.540;2022-07-29T13:19:49;36.80;46.20
40932;DHT22;36257;46.052;12.540;2022-07-29T13:22:24;36.60;47.20
40932;DHT22;36257;46.052;12.540;2022-07-29T13:24:58;36.30;48.60
40932;DHT22;36257;46.052;12.540;2022-07-29T13:27:26;36.20;47.40
40932;DHT22;36257;46.052;12.540;2022-07-29T13:29:54;36.30;48.50
40932;DHT22;36257;46.052;12.540;2022-07-29T13:32:23;36.50;49.90
40932;DHT22;36257;46.052;12.540;2022-07-29T13:34:49;36.60;47.90
40932;DHT22;36257;46.052;12.540;2022-07-29T13:37:15;36.70;47.90
40932;DHT22;36257;46.052;12.540;2022-07-29T13:39:42;36.70;46.70
40932;DHT22;36257;46.052;12.540;2022-07-29T13:42:08;36.40;46.80
40932;DHT22;36257;46.052;12.540;2022-07-29T13:44:35;36.20;48.30
40932;DHT22;36257;46.052;12.540;2022-07-29T13:47:01;36.20;47.60
40932;DHT22;36257;46.052;12.540;2022-07-29T13:49:27;36.20;49.70
40932;DHT22;36257;46.052;12.540;2022-07-29T13:51:53;36.10;47.20
40932;DHT22;36257;46.052;12.540;2022-07-29T13:54:19;36.00;47.30
40932;DHT22;36257;46.052;12.540;2022-07-29T13:56:45;36.00;47.60
40932;DHT22;36257;46.052;12.540;2022-07-29T13:59:11;36.10;47.80
40932;DHT22;36257;46.052;12.540;2022-07-29T14:01:37;36.20;48.30
40932;DHT22;36257;46.052;12.540;2022-07-29T14:04:03;36.40;48.70
40932;DHT22;36257;46.052;12.540;2022-07-29T14:06:29;36.40;48.50
40932;DHT22;36257;46.052;12.540;2022-07-29T14:08:57;36.50;50.70
40932;DHT22;36257;46.052;12.540;2022-07-29T14:11:23;36.50;48.10
40932;DHT22;36257;46.052;12.540;2022-07-29T14:13:49;36.60;47.30
40932;DHT22;36257;46.052;12.540;2022-07-29T14:16:14;36.50;47.30
40932;DHT22;36257;46.052;12.540;2022-07-29T14:18:40;36.40;46.90
40932;DHT22;36257;46.052;12.540;2022-07-29T14:21:05;36.20;45.80
40932;DHT22;36257;46.052;12.540;2022-07-29T14:23:31;36.00;46.90
40932;DHT22;36257;46.052;12.540;2022-07-29T14:25:57;35.90;47.30
40932;DHT22;36257;46.052;12.540;2022-07-29T14:28:22;35.80;47.50
40932;DHT22;36257;46.052;12.540;2022-07-29T14:30:48;35.90;48.10
40932;DHT22;36257;46.052;12.540;2022-07-29T14:33:14;35.80;47.10
40932;DHT22;36257;46.052;12.540;2022-07-29T14:35:39;35.60;47.50
40932;DHT22;36257;46.052;12.540;2022-07-29T14:38:05;35.70;47.40
40932;DHT22;36257;46.052;12.540;2022-07-29T14:40:31;35.80;48.20
40932;DHT22;36257;46.052;12.540;2022-07-29T14:42:56;35.60;45.80
40932;DHT22;36257;46.052;12.540;2022-07-29T14:45:22;35.30;47.10
40932;DHT22;36257;46.052;12.540;2022-07-29T14:47:48;35.10;47.50
40932;DHT22;36257;46.052;12.540;2022-07-29T14:50:15;35.00;47.10
40932;DHT22;36257;46.052;12.540;2022-07-29T14:52:41;35.00;47.10
40932;DHT22;36257;46.052;12.540;2022-07-29T14:55:07;35.00;47.80
40932;DHT22;36257;46.052;12.540;2022-07-29T14:57:33;34.90;49.70
40932;DHT22;36257;46.052;12.540;2022-07-29T14:59:59;34.90;48.70
40932;DHT22;36257;46.052;12.540;2022-07-29T15:02:24;34.80;48.20
40932;DHT22;36257;46.052;12.540;2022-07-29T15:04:50;34.80;48.50
40932;DHT22;36257;46.052;12.540;2022-07-29T15:07:16;34.70;48.60
40932;DHT22;36257;46.052;12.540;2022-07-29T15:09:42;34.60;48.20
40932;DHT22;36257;46.052;12.540;2022-07-29T15:12:08;34.50;48.20
40932;DHT22;36257;46.052;12.540;2022-07-29T15:14:35;34.50;48.50
40932;DHT22;36257;46.052;12.540;2022-07-29T15:17:01;34.50;48.40
40932;DHT22;36257;46.052;12.540;2022-07-29T15:19:27;34.40;49.00
40932;DHT22;36257;46.052;12.540;2022-07-29T15:21:53;34.40;49.60
40932;DHT22;36257;46.052;12.540;2022-07-29T15:24:18;34.20;48.80
40932;DHT22;36257;46.052;12.540;2022-07-29T15:26:45;34.10;49.80
40932;DHT22;36257;46.052;12.540;2022-07-29T15:29:11;34.00;48.60
40932;DHT22;36257;46.052;12.540;2022-07-29T15:31:36;34.00;49.70
40932;DHT22;36257;46.052;12.540;2022-07-29T15:34:02;34.00;48.60
40932;DHT22;36257;46.052;12.540;2022-07-29T15:36:28;34.00;48.40
40932;DHT22;36257;46.052;12.540;2022-07-29T15:38:54;33.90;49.10
40932;DHT22;36257;46.052;12.540;2022-07-29T15:41:20;33.80;50.30
40932;DHT22;36257;46.052;12.540;2022-07-29T15:43:47;33.80;50.20
40932;DHT22;36257;46.052;12.540;2022-07-29T15:46:14;33.70;49.50
40932;DHT22;36257;46.052;12.540;2022-07-29T15:48:59;33.70;48.50
40932;DHT22;36257;46.052;12.540;2022-07-29T15:51:26;33.70;49.60
40932;DHT22;36257;46.052;12.540;2022-07-29T15:53:51;33.70;48.60
40932;DHT22;36257;46.052;12.540;2022-07-29T15:56:17;33.60;49.10
40932;DHT22;36257;46.052;12.540;2022-07-29T15:58:43;33.50;49.40
40932;DHT22;36257;46.052;12.540;2022-07-29T16:01:09;33.40;50.30
40932;DHT22;36257;46.052;12.540;2022-07-29T16:03:35;33.20;49.40
40932;DHT22;36257;46.052;12.540;2022-07-29T16:06:01;33.10;50.00
40932;DHT22;36257;46.052;12.540;2022-07-29T16:08:27;33.10;50.20
40932;DHT22;36257;46.052;12.540;2022-07-29T16:10:53;33.00;50.60